sensor_id;sensor_type;location;lat;lon;timestamp;P1;durP1;ratioP1;P2;durP2;ratioP2
10651;SDS011;5374;42.742;23.266;2024-03-23T00:54:56;14.67;;;9.73;;
10651;SDS011;5374;42.742;23.266;2024-03-23T00:57:42;19.37;;;11.63;;
10651;SDS011;5374;42.742;23.266;2024-03-23T01:00:29;14.10;;;10.17;;
10651;SDS011;5374;42.742;23.266;2024-03-23T01:03:15;20.93;;;10.50;;
10651;SDS011;5374;42.742;23.266;2024-03-23T01:06:02;15.87;;;10.60;;
10651;SDS011;5374;42.742;23.266;2024-03-23T01:08:49;14.80;;;10.60;;
10651;SDS011;5374;42.742;23.266;2024-03-23T01:11:37;18.53;;;12.17;;
10651;SDS011;5374;42.742;23.266;2024-03-23T01:14:23;17.10;;;10.47;;
10651;SDS011;5374;42.742;23.266;2024-03-23T01:17:10;16.20;;;10.23;;
10651;SDS011;5374;42.742;23.266;2024-03-23T01:19:56;15.20;;;9.50;;
10651;SDS011;5374;42.742;23.266;2024-03-23T01:22:43;15.30;;;10.87;;
10651;SDS011;5374;42.742;23.266;2024-03-23T01:25:29;16.50;;;10.87;;
10651;SDS011;5374;42.742;23.266;2024-03-23T01:28:18;21.57;;;11.00;;
10651;SDS011;5374;42.742;23.266;2024-03-23T01:31:04;15.73;;;10.83;;
10651;SDS011;5374;42.742;23.266;2024-03-23T01:33:51;14.97;;;9.97;;
10651;SDS011;5374;42.742;23.266;2024-03-23T01:36:37;16.07;;;9.33;;
10651;SDS011;5374;42.742;23.266;2024-03-23T01:39:25;17.23;;;10.00;;
10651;SDS011;5374;42.742;23.266;2024-03-23T01:42:11;13.43;;;9.57;;
10651;SDS011;5374;42.742;23.266;2024-03-23T01:45:00;13.00;;;9.07;;
10651;SDS011;5374;42.742;23.266;2024-03-23T01:47:46;16.60;;;9.10;;
10651;SDS011;5374;42.742;23.266;2024-03-23T01:50:34;13.67;;;9.47;;
10651;SDS011;5374;42.742;23.266;2024-03-23T01:53:20;13.63;;;9.53;;
10651;SDS011;5374;42.742;23.266;2024-03-23T01:56:08;11.27;;;8.97;;
10651;SDS011;5374;42.742;23.266;2024-03-23T01:58:54;17.50;;;10.03;;
10651;SDS011;5374;42.742;23.266;2024-03-23T02:01:43;12.67;;;8.53;;
10651;SDS011;5374;42.742;23.266;2024-03-23T02:04:30;13.53;;;8.93;;
10651;SDS011;5374;42.742;23.266;2024-03-23T02:07:16;14.53;;;9.83;;
10651;SDS011;5374;42.742;23.266;2024-03-23T02:10:04;13.83;;;9.17;;
10651;SDS011;5374;42.742;23.266;2024-03-23T02:12:51;14.50;;;9.90;;
10651;SDS011;5374;42.742;23.266;2024-03-23T02:15:38;13.37;;;9.10;;
10651;SDS011;5374;42.742;23.266;2024-03-23T02:18:26;13.93;;;9.40;;
10651;SDS011;5374;42.742;23.266;2024-03-23T02:21:15;16.33;;;9.80;;
10651;SDS011;5374;42.742;23.266;2024-03-23T02:24:02;14.53;;;9.37;;
10651;SDS011;5374;42.742;23.266;2024-03-23T02:26:50;15.17;;;9.93;;
10651;SDS011;5374;42.742;23.266;2024-03-23T02:29:36;15.60;;;10.53;;
10651;SDS011;5374;42.742;23.266;2024-03-23T02:32:23;15.10;;;10.60;;
10651;SDS011;5374;42.742;23.266;2024-03-23T02:35:09;22.43;;;11.17;;
10651;SDS011;5374;42.742;23.266;2024-03-23T02:37:56;44.33;;;25.13;;
10651;SDS011;5374;42.742;23.266;2024-03-23T02:40:44;49.37;;;25.27;;
10651;SDS011;5374;42.742;23.266;2024-03-23T02:43:31;41.90;;;21.67;;
10651;SDS011;5374;42.742;23.266;2024-03-23T02:46:17;29.93;;;17.87;;
10651;SDS011;5374;42.742;23.266;2024-03-23T02:49:04;23.93;;;13.73;;
10651;SDS011;5374;42.742;23.266;2024-03-23T02:51:50;19.93;;;12.60;;
10651;SDS011;5374;42.742;23.266;2024-03-23T02:54:37;19.73;;;12.13;;
10651;SDS011;5374;42.742;23.266;2024-03-23T02:57:25;34.33;;;20.00;;
10651;SDS011;5374;42.742;23.266;2024-03-23T03:00:12;46.63;;;24.20;;
10651;SDS011;5374;42.742;23.266;2024-03-23T03:02:59;42.53;;;21.57;;
10651;SDS011;5374;42.742;23.266;2024-03-23T03:05:46;27.73;;;16.90;;
10651;SDS011;5374;42.742;23.266;2024-03-23T03:08:32;31.20;;;18.17;;
10651;SDS011;5374;42.742;23.266;2024-03-23T03:11:19;25.80;;;15.57;;
10651;SDS011;5374;42.742;23.266;2024-03-23T03:14:06;25.83;;;12.77;;
10651;SDS011;5374;42.742;23.266;2024-03-23T03:16:54;17.60;;;11.83;;
10651;SDS011;5374;42.742;23.266;2024-03-23T03:19:40;18.60;;;10.43;;
10651;SDS011;5374;42.742;23.266;2024-03-23T03:22:27;16.53;;;10.93;;
10651;SDS011;5374;42.742;23.266;2024-03-23T03:25:13;14.43;;;9.97;;
10651;SDS011;5374;42.742;23.266;2024-03-23T03:28:00;15.43;;;9.90;;
10651;SDS011;5374;42.742;23.266;2024-03-23T03:30:48;14.13;;;10.40;;
10651;SDS011;5374;42.742;23.266;2024-03-23T03:33:36;20.17;;;13.43;;
10651;SDS011;5374;42.742;23.266;2024-03-23T03:36:22;28.03;;;16.30;;
10651;SDS011;5374;42.742;23.266;2024-03-23T03:39:09;30.20;;;16.93;;
10651;SDS011;5374;42.742;23.266;2024-03-23T03:41:55;44.17;;;23.33;;
10651;SDS011;5374;42.742;23.266;2024-03-23T03:44:42;40.43;;;22.63;;
10651;SDS011;5374;42.742;23.266;2024-03-23T03:47:30;38.37;;;21.53;;
10651;SDS011;5374;42.742;23.266;2024-03-23T03:50:17;40.90;;;22.07;;
10651;SDS011;5374;42.742;23.266;2024-03-23T03:53:03;36.27;;;21.10;;
10651;SDS011;5374;42.742;23.266;2024-03-23T03:55:50;54.60;;;28.30;;
10651;SDS011;5374;42.742;23.266;2024-03-23T03:58:36;79.50;;;38.37;;
10651;SDS011;5374;42.742;23.266;2024-03-23T04:01:23;78.10;;;37.97;;
10651;SDS011;5374;42.742;23.266;2024-03-23T04:04:11;53.43;;;29.13;;
10651;SDS011;5374;42.742;23.266;2024-03-23T04:06:59;40.33;;;23.00;;
10651;SDS011;5374;42.742;23.266;2024-03-23T04:09:46;24.20;;;13.53;;
10651;SDS011;5374;42.742;23.266;2024-03-23T04:12:33;19.00;;;11.70;;
10651;SDS011;5374;42.742;23.266;2024-03-23T04:15:20;31.60;;;19.07;;
10651;SDS011;5374;42.742;23.266;2024-03-23T04:18:06;49.77;;;26.00;;
10651;SDS011;5374;42.742;23.266;2024-03-23T04:20:55;32.80;;;19.47;;
10651;SDS011;5374;42.742;23.266;2024-03-23T04:23:41;32.63;;;19.53;;
10651;SDS011;5374;42.742;23.266;2024-03-23T04:26:28;33.60;;;21.00;;
10651;SDS011;5374;42.742;23.266;2024-03-23T04:29:14;35.23;;;21.23;;
10651;SDS011;5374;42.742;23.266;2024-03-23T04:32:01;25.73;;;17.33;;
10651;SDS011;5374;42.742;23.266;2024-03-23T04:34:47;22.13;;;15.27;;
10651;SDS011;5374;42.742;23.266;2024-03-23T04:37:36;20.13;;;12.07;;
10651;SDS011;5374;42.742;23.266;2024-03-23T04:40:23;15.80;;;10.27;;
10651;SDS011;5374;42.742;23.266;2024-03-23T04:43:10;15.23;;;9.77;;
10651;SDS011;5374;42.742;23.266;2024-03-23T04:45:57;15.47;;;9.70;;
10651;SDS011;5374;42.742;23.266;2024-03-23T04:48:44;14.03;;;9.10;;
10651;SDS011;5374;42.742;23.266;2024-03-23T04:51:35;15.50;;;8.77;;
10651;SDS011;5374;42.742;23.266;2024-03-23T04:54:25;14.97;;;9.73;;
10651;SDS011;5374;42.742;23.266;2024-03-23T04:57:14;12.50;;;8.77;;
10651;SDS011;5374;42.742;23.266;2024-03-23T05:00:02;15.13;;;9.17;;
10651;SDS011;5374;42.742;23.266;2024-03-23T05:02:50;13.83;;;9.50;;
10651;SDS011;5374;42.742;23.266;2024-03-23T05:05:38;12.47;;;9.40;;
10651;SDS011;5374;42.742;23.266;2024-03-23T05:08:24;29.93;;;18.27;;
10651;SDS011;5374;42.742;23.266;2024-03-23T05:11:13;33.30;;;20.47;;
10651;SDS011;5374;42.742;23.266;2024-03-23T05:13:59;36.50;;;17.87;;
10651;SDS011;5374;42.742;23.266;2024-03-23T05:16:48;22.80;;;15.70;;
10651;SDS011;5374;42.742;23.266;2024-03-23T05:19:34;22.20;;;12.60;;
10651;SDS011;5374;42.742;23.266;2024-03-23T05:22:21;20.23;;;12.43;;
10651;SDS011;5374;42.742;23.266;2024-03-23T05:25:07;17.17;;;11.40;;
10651;SDS011;5374;42.742;23.266;2024-03-23T05:27:56;18.87;;;11.57;;
10651;SDS011;5374;42.742;23.266;2024-03-23T05:30:42;20.77;;;13.00;;
10651;SDS011;5374;42.742;23.266;2024-03-23T05:33:30;20.37;;;12.07;;
10651;SDS011;5374;42.742;23.266;2024-03-23T05:36:17;20.63;;;13.80;;
10651;SDS011;5374;42.742;23.266;2024-03-23T05:39:03;16.80;;;12.73;;
10651;SDS011;5374;42.742;23.266;2024-03-23T05:41:50;14.00;;;10.20;;
10651;SDS011;5374;42.742;23.266;2024-03-23T05:44:38;15.47;;;10.37;;
10651;SDS011;5374;42.742;23.266;2024-03-23T05:47:25;11.67;;;9.43;;
10651;SDS011;5374;42.742;23.266;2024-03-23T05:50:11;14.00;;;10.13;;
10651;SDS011;5374;42.742;23.266;2024-03-23T05:52:58;16.27;;;10.53;;
10651;SDS011;5374;42.742;23.266;2024-03-23T05:55:44;15.70;;;11.13;;
10651;SDS011;5374;42.742;23.266;2024-03-23T05:58:33;18.27;;;12.27;;
10651;SDS011;5374;42.742;23.266;2024-03-23T06:01:21;13.80;;;10.50;;
10651;SDS011;5374;42.742;23.266;2024-03-23T06:04:07;15.00;;;11.60;;
10651;SDS011;5374;42.742;23.266;2024-03-23T06:06:54;18.93;;;12.53;;
10651;SDS011;5374;42.742;23.266;2024-03-23T06:09:40;28.70;;;20.83;;
10651;SDS011;5374;42.742;23.266;2024-03-23T06:12:28;16.43;;;12.77;;
10651;SDS011;5374;42.742;23.266;2024-03-23T06:15:14;11.40;;;10.30;;
10651;SDS011;5374;42.742;23.266;2024-03-23T06:18:02;10.20;;;8.90;;
10651;SDS011;5374;42.742;23.266;2024-03-23T06:20:50;14.77;;;13.13;;
10651;SDS011;5374;42.742;23.266;2024-03-23T06:23:37;11.50;;;10.30;;
10651;SDS011;5374;42.742;23.266;2024-03-23T06:26:23;13.02;;;9.95;;
10651;SDS011;5374;42.742;23.266;2024-03-23T06:29:10;19.27;;;17.20;;
10651;SDS011;5374;42.742;23.266;2024-03-23T06:31:57;24.25;;;20.08;;
10651;SDS011;5374;42.742;23.266;2024-03-23T06:34:45;17.45;;;14.82;;
10651;SDS011;5374;42.742;23.266;2024-03-23T06:37:32;19.80;;;15.38;;
10651;SDS011;5374;42.742;23.266;2024-03-23T06:40:18;13.80;;;12.40;;
10651;SDS011;5374;42.742;23.266;2024-03-23T06:43:05;13.80;;;11.73;;
10651;SDS011;5374;42.742;23.266;2024-03-23T06:45:54;12.73;;;11.43;;
10651;SDS011;5374;42.742;23.266;2024-03-23T06:48:42;13.83;;;10.83;;
10651;SDS011;5374;42.742;23.266;2024-03-23T06:51:33;13.77;;;11.43;;
10651;SDS011;5374;42.742;23.266;2024-03-23T06:54:19;11.43;;;9.60;;
10651;SDS011;5374;42.742;23.266;2024-03-23T06:57:06;14.23;;;12.60;;
10651;SDS011;5374;42.742;23.266;2024-03-23T06:59:52;13.23;;;11.40;;
10651;SDS011;5374;42.742;23.266;2024-03-23T07:02:40;10.20;;;9.10;;
10651;SDS011;5374;42.742;23.266;2024-03-23T07:05:26;9.83;;;8.80;;
10651;SDS011;5374;42.742;23.266;2024-03-23T07:08:14;10.87;;;8.97;;
10651;SDS011;5374;42.742;23.266;2024-03-23T07:11:06;14.17;;;9.20;;
10651;SDS011;5374;42.742;23.266;2024-03-23T07:13:53;12.73;;;8.80;;
10651;SDS011;5374;42.742;23.266;2024-03-23T07:16:40;12.57;;;8.67;;
10651;SDS011;5374;42.742;23.266;2024-03-23T07:19:27;10.97;;;8.20;;
10651;SDS011;5374;42.742;23.266;2024-03-23T07:22:14;13.67;;;8.70;;
10651;SDS011;5374;42.742;23.266;2024-03-23T07:25:02;14.20;;;9.03;;
10651;SDS011;5374;42.742;23.266;2024-03-23T07:27:49;12.60;;;8.73;;
10651;SDS011;5374;42.742;23.266;2024-03-23T07:30:35;15.07;;;10.40;;
10651;SDS011;5374;42.742;23.266;2024-03-23T07:33:23;13.27;;;8.13;;
10651;SDS011;5374;42.742;23.266;2024-03-23T07:36:09;13.33;;;9.83;;
10651;SDS011;5374;42.742;23.266;2024-03-23T07:38:56;15.67;;;10.20;;
10651;SDS011;5374;42.742;23.266;2024-03-23T07:41:45;11.93;;;9.40;;
10651;SDS011;5374;42.742;23.266;2024-03-23T07:44:32;12.20;;;8.77;;
10651;SDS011;5374;42.742;23.266;2024-03-23T07:47:18;13.00;;;8.60;;
10651;SDS011;5374;42.742;23.266;2024-03-23T07:50:06;10.10;;;9.03;;
10651;SDS011;5374;42.742;23.266;2024-03-23T07:52:52;14.63;;;9.17;;
10651;SDS011;5374;42.742;23.266;2024-03-23T07:55:39;13.47;;;9.90;;
10651;SDS011;5374;42.742;23.266;2024-03-23T07:58:28;14.10;;;9.00;;
10651;SDS011;5374;42.742;23.266;2024-03-23T08:01:15;13.00;;;8.40;;
10651;SDS011;5374;42.742;23.266;2024-03-23T08:04:03;10.90;;;8.60;;
10651;SDS011;5374;42.742;23.266;2024-03-23T08:06:49;10.27;;;8.10;;
10651;SDS011;5374;42.742;23.266;2024-03-23T08:09:36;13.83;;;9.23;;
10651;SDS011;5374;42.742;23.266;2024-03-23T08:12:22;14.00;;;8.50;;
10651;SDS011;5374;42.742;23.266;2024-03-23T08:15:11;16.27;;;9.63;;
10651;SDS011;5374;42.742;23.266;2024-03-23T08:17:57;13.20;;;9.80;;
10651;SDS011;5374;42.742;23.266;2024-03-23T08:20:44;13.63;;;9.80;;
10651;SDS011;5374;42.742;23.266;2024-03-23T08:23:31;13.30;;;9.40;;
10651;SDS011;5374;42.742;23.266;2024-03-23T08:26:21;12.63;;;10.30;;
10651;SDS011;5374;42.742;23.266;2024-03-23T08:29:07;14.17;;;9.97;;
10651;SDS011;5374;42.742;23.266;2024-03-23T08:31:55;14.87;;;9.17;;
10651;SDS011;5374;42.742;23.266;2024-03-23T08:34:41;15.20;;;10.33;;
10651;SDS011;5374;42.742;23.266;2024-03-23T08:37:29;12.67;;;9.60;;
10651;SDS011;5374;42.742;23.266;2024-03-23T08:40:15;13.07;;;9.93;;
10651;SDS011;5374;42.742;23.266;2024-03-23T08:43:02;12.03;;;9.07;;
10651;SDS011;5374;42.742;23.266;2024-03-23T08:45:49;13.30;;;8.87;;
10651;SDS011;5374;42.742;23.266;2024-03-23T08:48:37;11.27;;;9.07;;
10651;SDS011;5374;42.742;23.266;2024-03-23T08:51:25;12.47;;;8.90;;
10651;SDS011;5374;42.742;23.266;2024-03-23T08:54:11;11.47;;;9.30;;
10651;SDS011;5374;42.742;23.266;2024-03-23T08:56:59;12.70;;;9.03;;
10651;SDS011;5374;42.742;23.266;2024-03-23T08:59:46;13.97;;;9.60;;
10651;SDS011;5374;42.742;23.266;2024-03-23T09:02:32;14.80;;;10.23;;
10651;SDS011;5374;42.742;23.266;2024-03-23T09:05:20;11.93;;;9.20;;
10651;SDS011;5374;42.742;23.266;2024-03-23T09:08:07;13.07;;;9.17;;
10651;SDS011;5374;42.742;23.266;2024-03-23T09:10:54;15.60;;;9.33;;
10651;SDS011;5374;42.742;23.266;2024-03-23T09:13:41;15.90;;;9.50;;
10651;SDS011;5374;42.742;23.266;2024-03-23T09:16:28;13.23;;;9.43;;
10651;SDS011;5374;42.742;23.266;2024-03-23T09:19:14;12.43;;;9.63;;
10651;SDS011;5374;42.742;23.266;2024-03-23T09:22:02;12.43;;;9.30;;
10651;SDS011;5374;42.742;23.266;2024-03-23T09:24:49;13.97;;;10.13;;
10651;SDS011;5374;42.742;23.266;2024-03-23T09:27:36;17.73;;;9.00;;
10651;SDS011;5374;42.742;23.266;2024-03-23T09:30:22;13.00;;;9.60;;
10651;SDS011;5374;42.742;23.266;2024-03-23T09:33:10;11.63;;;8.77;;
10651;SDS011;5374;42.742;23.266;2024-03-23T09:35:56;17.33;;;9.50;;
10651;SDS011;5374;42.742;23.266;2024-03-23T09:38:45;14.80;;;9.00;;
10651;SDS011;5374;42.742;23.266;2024-03-23T09:41:31;13.20;;;8.27;;
10651;SDS011;5374;42.742;23.266;2024-03-23T09:44:18;14.17;;;9.40;;
10651;SDS011;5374;42.742;23.266;2024-03-23T09:47:04;14.17;;;9.17;;
10651;SDS011;5374;42.742;23.266;2024-03-23T09:49:52;12.60;;;8.77;;
10651;SDS011;5374;42.742;23.266;2024-03-23T09:52:38;16.13;;;8.70;;
10651;SDS011;5374;42.742;23.266;2024-03-23T09:55:27;12.53;;;8.87;;
10651;SDS011;5374;42.742;23.266;2024-03-23T09:58:13;12.93;;;8.17;;
10651;SDS011;5374;42.742;23.266;2024-03-23T10:01:04;11.83;;;8.63;;
10651;SDS011;5374;42.742;23.266;2024-03-23T10:03:51;11.77;;;8.60;;
10651;SDS011;5374;42.742;23.266;2024-03-23T10:06:38;15.07;;;8.53;;
10651;SDS011;5374;42.742;23.266;2024-03-23T10:09:24;11.90;;;8.13;;
10651;SDS011;5374;42.742;23.266;2024-03-23T10:12:16;12.00;;;7.90;;
10651;SDS011;5374;42.742;23.266;2024-03-23T10:15:03;9.57;;;6.97;;
10651;SDS011;5374;42.742;23.266;2024-03-23T10:18:04;11.27;;;7.63;;
10651;SDS011;5374;42.742;23.266;2024-03-23T10:21:07;11.80;;;7.07;;
10651;SDS011;5374;42.742;23.266;2024-03-23T10:23:56;14.00;;;7.80;;
10651;SDS011;5374;42.742;23.266;2024-03-23T10:26:55;10.30;;;7.40;;
10651;SDS011;5374;42.742;23.266;2024-03-23T10:29:44;14.27;;;6.70;;
10651;SDS011;5374;42.742;23.266;2024-03-23T10:32:31;11.03;;;6.70;;
10651;SDS011;5374;42.742;23.266;2024-03-23T10:35:19;11.27;;;7.20;;
10651;SDS011;5374;42.742;23.266;2024-03-23T10:38:07;13.50;;;7.33;;
10651;SDS011;5374;42.742;23.266;2024-03-23T10:40:54;9.53;;;6.23;;
10651;SDS011;5374;42.742;23.266;2024-03-23T10:43:42;11.33;;;6.83;;
10651;SDS011;5374;42.742;23.266;2024-03-23T10:46:32;7.83;;;5.90;;
10651;SDS011;5374;42.742;23.266;2024-03-23T10:49:19;10.33;;;6.20;;
10651;SDS011;5374;42.742;23.266;2024-03-23T10:52:06;7.47;;;5.83;;
10651;SDS011;5374;42.742;23.266;2024-03-23T10:54:52;10.10;;;6.27;;
10651;SDS011;5374;42.742;23.266;2024-03-23T10:57:40;17.57;;;5.90;;
10651;SDS011;5374;42.742;23.266;2024-03-23T11:00:29;8.90;;;5.47;;
10651;SDS011;5374;42.742;23.266;2024-03-23T11:03:31;7.57;;;5.23;;
10651;SDS011;5374;42.742;23.266;2024-03-23T11:06:33;9.80;;;4.77;;
10651;SDS011;5374;42.742;23.266;2024-03-23T11:09:41;10.20;;;5.90;;
10651;SDS011;5374;42.742;23.266;2024-03-23T11:12:30;8.10;;;4.93;;
10651;SDS011;5374;42.742;23.266;2024-03-23T11:15:20;10.07;;;5.30;;
10651;SDS011;5374;42.742;23.266;2024-03-23T11:18:07;9.40;;;5.13;;
10651;SDS011;5374;42.742;23.266;2024-03-23T11:20:56;9.93;;;4.93;;
10651;SDS011;5374;42.742;23.266;2024-03-23T11:23:44;9.57;;;5.00;;
10651;SDS011;5374;42.742;23.266;2024-03-23T11:26:39;6.10;;;4.57;;
10651;SDS011;5374;42.742;23.266;2024-03-23T11:29:25;8.93;;;4.47;;
10651;SDS011;5374;42.742;23.266;2024-03-23T11:32:12;5.87;;;4.50;;
10651;SDS011;5374;42.742;23.266;2024-03-23T11:34:59;9.67;;;4.90;;
10651;SDS011;5374;42.742;23.266;2024-03-23T11:37:47;6.87;;;4.47;;
10651;SDS011;5374;42.742;23.266;2024-03-23T11:40:50;7.37;;;4.30;;
10651;SDS011;5374;42.742;23.266;2024-03-23T11:43:37;7.37;;;4.13;;
10651;SDS011;5374;42.742;23.266;2024-03-23T11:46:23;6.70;;;4.77;;
10651;SDS011;5374;42.742;23.266;2024-03-23T11:49:20;5.27;;;4.33;;
10651;SDS011;5374;42.742;23.266;2024-03-23T11:52:07;7.47;;;4.20;;
10651;SDS011;5374;42.742;23.266;2024-03-23T11:55:04;7.67;;;4.00;;
10651;SDS011;5374;42.742;23.266;2024-03-23T11:57:50;5.40;;;3.50;;
10651;SDS011;5374;42.742;23.266;2024-03-23T12:00:37;7.27;;;3.83;;
10651;SDS011;5374;42.742;23.266;2024-03-23T12:03:24;6.43;;;3.70;;
10651;SDS011;5374;42.742;23.266;2024-03-23T12:06:13;5.30;;;3.40;;
10651;SDS011;5374;42.742;23.266;2024-03-23T12:09:05;5.23;;;3.50;;
10651;SDS011;5374;42.742;23.266;2024-03-23T12:11:54;5.10;;;3.50;;
10651;SDS011;5374;42.742;23.266;2024-03-23T12:14:41;6.37;;;3.50;;
10651;SDS011;5374;42.742;23.266;2024-03-23T12:17:28;4.47;;;3.37;;
10651;SDS011;5374;42.742;23.266;2024-03-23T12:20:14;5.33;;;3.70;;
10651;SDS011;5374;42.742;23.266;2024-03-23T12:23:05;7.37;;;3.37;;
10651;SDS011;5374;42.742;23.266;2024-03-23T12:25:55;6.93;;;3.87;;
10651;SDS011;5374;42.742;23.266;2024-03-23T12:28:43;5.80;;;3.53;;
10651;SDS011;5374;42.742;23.266;2024-03-23T12:31:30;7.13;;;3.23;;
10651;SDS011;5374;42.742;23.266;2024-03-23T12:34:16;3.57;;;2.70;;
10651;SDS011;5374;42.742;23.266;2024-03-23T12:37:04;3.77;;;2.80;;
10651;SDS011;5374;42.742;23.266;2024-03-23T12:39:51;4.57;;;2.50;;
10651;SDS011;5374;42.742;23.266;2024-03-23T12:42:37;4.67;;;2.43;;
10651;SDS011;5374;42.742;23.266;2024-03-23T12:45:26;4.43;;;2.33;;
10651;SDS011;5374;42.742;23.266;2024-03-23T12:48:12;3.37;;;2.47;;
10651;SDS011;5374;42.742;23.266;2024-03-23T12:50:59;3.37;;;2.27;;
10651;SDS011;5374;42.742;23.266;2024-03-23T12:53:45;2.40;;;1.77;;
10651;SDS011;5374;42.742;23.266;2024-03-23T12:56:33;3.30;;;1.77;;
10651;SDS011;5374;42.742;23.266;2024-03-23T12:59:19;2.70;;;2.10;;
10651;SDS011;5374;42.742;23.266;2024-03-23T13:02:07;6.67;;;2.10;;
10651;SDS011;5374;42.742;23.266;2024-03-23T13:04:53;3.50;;;1.83;;
10651;SDS011;5374;42.742;23.266;2024-03-23T13:07:41;3.17;;;1.70;;
10651;SDS011;5374;42.742;23.266;2024-03-23T13:10:27;3.37;;;1.77;;
10651;SDS011;5374;42.742;23.266;2024-03-23T13:13:14;4.67;;;2.00;;
10651;SDS011;5374;42.742;23.266;2024-03-23T13:16:00;3.33;;;1.80;;
10651;SDS011;5374;42.742;23.266;2024-03-23T13:18:49;3.93;;;2.23;;
10651;SDS011;5374;42.742;23.266;2024-03-23T13:21:35;4.33;;;2.00;;
10651;SDS011;5374;42.742;23.266;2024-03-23T13:24:23;4.07;;;2.00;;
10651;SDS011;5374;42.742;23.266;2024-03-23T13:27:09;3.63;;;2.23;;
10651;SDS011;5374;42.742;23.266;2024-03-23T13:29:57;3.27;;;2.20;;
10651;SDS011;5374;42.742;23.266;2024-03-23T13:32:44;4.70;;;2.27;;
10651;SDS011;5374;42.742;23.266;2024-03-23T13:35:31;4.60;;;2.77;;
10651;SDS011;5374;42.742;23.266;2024-03-23T13:38:18;4.83;;;2.00;;
10651;SDS011;5374;42.742;23.266;2024-03-23T13:41:06;3.27;;;1.90;;
10651;SDS011;5374;42.742;23.266;2024-03-23T13:43:53;7.13;;;3.17;;
10651;SDS011;5374;42.742;23.266;2024-03-23T13:46:40;3.03;;;2.30;;
10651;SDS011;5374;42.742;23.266;2024-03-23T13:49:29;3.27;;;2.17;;
10651;SDS011;5374;42.742;23.266;2024-03-23T13:52:17;5.83;;;2.40;;
10651;SDS011;5374;42.742;23.266;2024-03-23T13:55:08;4.00;;;2.70;;
10651;SDS011;5374;42.742;23.266;2024-03-23T13:57:57;4.93;;;2.43;;
10651;SDS011;5374;42.742;23.266;2024-03-23T14:00:44;6.43;;;2.60;;
10651;SDS011;5374;42.742;23.266;2024-03-23T14:03:30;2.97;;;2.30;;
10651;SDS011;5374;42.742;23.266;2024-03-23T14:06:17;4.30;;;2.77;;
10651;SDS011;5374;42.742;23.266;2024-03-23T14:09:06;5.33;;;2.47;;
10651;SDS011;5374;42.742;23.266;2024-03-23T14:11:54;4.20;;;2.30;;
10651;SDS011;5374;42.742;23.266;2024-03-23T14:14:41;3.30;;;2.40;;
10651;SDS011;5374;42.742;23.266;2024-03-23T14:17:27;4.77;;;2.60;;
10651;SDS011;5374;42.742;23.266;2024-03-23T14:20:14;3.40;;;2.40;;
10651;SDS011;5374;42.742;23.266;2024-03-23T14:23:01;4.07;;;2.60;;
10651;SDS011;5374;42.742;23.266;2024-03-23T14:25:49;3.73;;;2.90;;
10651;SDS011;5374;42.742;23.266;2024-03-23T14:28:39;4.20;;;2.67;;
10651;SDS011;5374;42.742;23.266;2024-03-23T14:31:41;4.73;;;2.80;;
10651;SDS011;5374;42.742;23.266;2024-03-23T14:34:28;4.00;;;3.10;;
10651;SDS011;5374;42.742;23.266;2024-03-23T14:37:14;4.13;;;2.83;;
10651;SDS011;5374;42.742;23.266;2024-03-23T14:40:02;3.27;;;2.70;;
10651;SDS011;5374;42.742;23.266;2024-03-23T14:42:48;3.47;;;2.83;;
10651;SDS011;5374;42.742;23.266;2024-03-23T14:45:35;4.47;;;2.93;;
10651;SDS011;5374;42.742;23.266;2024-03-23T14:48:25;3.53;;;2.60;;
10651;SDS011;5374;42.742;23.266;2024-03-23T14:51:12;4.20;;;3.10;;
10651;SDS011;5374;42.742;23.266;2024-03-23T14:53:58;6.53;;;3.10;;
10651;SDS011;5374;42.742;23.266;2024-03-23T14:56:46;5.17;;;3.33;;
10651;SDS011;5374;42.742;23.266;2024-03-23T14:59:33;4.20;;;3.13;;
10651;SDS011;5374;42.742;23.266;2024-03-23T15:02:20;3.80;;;2.90;;
10651;SDS011;5374;42.742;23.266;2024-03-23T15:05:07;6.33;;;3.13;;
10651;SDS011;5374;42.742;23.266;2024-03-23T15:07:55;4.70;;;3.47;;
10651;SDS011;5374;42.742;23.266;2024-03-23T15:10:43;4.10;;;3.00;;
10651;SDS011;5374;42.742;23.266;2024-03-23T15:13:30;4.23;;;2.83;;
10651;SDS011;5374;42.742;23.266;2024-03-23T15:16:16;4.73;;;3.47;;
10651;SDS011;5374;42.742;23.266;2024-03-23T15:19:05;9.07;;;5.23;;
10651;SDS011;5374;42.742;23.266;2024-03-23T15:21:53;3.50;;;3.03;;
10651;SDS011;5374;42.742;23.266;2024-03-23T15:24:40;6.50;;;3.10;;
10651;SDS011;5374;42.742;23.266;2024-03-23T15:27:26;4.50;;;3.60;;
10651;SDS011;5374;42.742;23.266;2024-03-23T15:30:13;4.57;;;3.63;;
10651;SDS011;5374;42.742;23.266;2024-03-23T15:32:59;7.40;;;4.00;;
10651;SDS011;5374;42.742;23.266;2024-03-23T15:35:46;4.70;;;3.30;;
10651;SDS011;5374;42.742;23.266;2024-03-23T15:38:34;6.07;;;3.33;;
10651;SDS011;5374;42.742;23.266;2024-03-23T15:41:21;4.03;;;3.40;;
10651;SDS011;5374;42.742;23.266;2024-03-23T15:44:09;4.97;;;3.30;;
10651;SDS011;5374;42.742;23.266;2024-03-23T15:46:56;5.30;;;2.97;;
10651;SDS011;5374;42.742;23.266;2024-03-23T15:49:42;7.40;;;3.60;;
10651;SDS011;5374;42.742;23.266;2024-03-23T15:52:29;5.27;;;3.93;;
10651;SDS011;5374;42.742;23.266;2024-03-23T15:55:17;10.10;;;7.90;;
10651;SDS011;5374;42.742;23.266;2024-03-23T15:58:04;17.90;;;16.07;;
10651;SDS011;5374;42.742;23.266;2024-03-23T16:00:54;7.30;;;5.53;;
10651;SDS011;5374;42.742;23.266;2024-03-23T16:03:41;28.13;;;23.27;;
10651;SDS011;5374;42.742;23.266;2024-03-23T16:06:27;14.10;;;11.50;;
10651;SDS011;5374;42.742;23.266;2024-03-23T16:09:14;5.40;;;3.83;;
10651;SDS011;5374;42.742;23.266;2024-03-23T16:12:02;5.23;;;4.73;;
10651;SDS011;5374;42.742;23.266;2024-03-23T16:14:49;6.03;;;4.20;;
10651;SDS011;5374;42.742;23.266;2024-03-23T16:17:35;6.33;;;3.40;;
10651;SDS011;5374;42.742;23.266;2024-03-23T16:20:23;8.60;;;4.03;;
10651;SDS011;5374;42.742;23.266;2024-03-23T16:23:09;7.40;;;4.63;;
10651;SDS011;5374;42.742;23.266;2024-03-23T16:25:56;4.13;;;3.73;;
10651;SDS011;5374;42.742;23.266;2024-03-23T16:28:43;4.53;;;3.83;;
10651;SDS011;5374;42.742;23.266;2024-03-23T16:31:33;4.23;;;3.23;;
10651;SDS011;5374;42.742;23.266;2024-03-23T16:34:20;6.57;;;3.43;;
10651;SDS011;5374;42.742;23.266;2024-03-23T16:37:07;5.30;;;3.87;;
10651;SDS011;5374;42.742;23.266;2024-03-23T16:39:56;7.03;;;4.30;;
10651;SDS011;5374;42.742;23.266;2024-03-23T16:42:43;7.33;;;4.77;;
10651;SDS011;5374;42.742;23.266;2024-03-23T16:45:30;5.33;;;3.93;;
10651;SDS011;5374;42.742;23.266;2024-03-23T16:48:17;4.90;;;4.10;;
10651;SDS011;5374;42.742;23.266;2024-03-23T16:51:04;5.97;;;3.80;;
10651;SDS011;5374;42.742;23.266;2024-03-23T16:53:51;8.30;;;4.47;;
10651;SDS011;5374;42.742;23.266;2024-03-23T16:56:38;8.63;;;4.83;;
10651;SDS011;5374;42.742;23.266;2024-03-23T16:59:25;6.90;;;4.30;;
10651;SDS011;5374;42.742;23.266;2024-03-23T17:02:12;9.00;;;4.40;;
10651;SDS011;5374;42.742;23.266;2024-03-23T17:04:59;5.73;;;4.43;;
10651;SDS011;5374;42.742;23.266;2024-03-23T17:07:45;6.50;;;4.20;;
10651;SDS011;5374;42.742;23.266;2024-03-23T17:10:33;6.40;;;4.10;;
10651;SDS011;5374;42.742;23.266;2024-03-23T17:13:19;9.20;;;4.00;;
10651;SDS011;5374;42.742;23.266;2024-03-23T17:16:06;5.77;;;4.03;;
10651;SDS011;5374;42.742;23.266;2024-03-23T17:18:54;7.63;;;4.27;;
10651;SDS011;5374;42.742;23.266;2024-03-23T17:21:41;7.13;;;4.60;;
10651;SDS011;5374;42.742;23.266;2024-03-23T17:24:28;7.73;;;4.67;;
10651;SDS011;5374;42.742;23.266;2024-03-23T17:27:17;5.20;;;4.63;;
10651;SDS011;5374;42.742;23.266;2024-03-23T17:30:03;5.57;;;4.27;;